sensor_id;sensor_type;location;lat;lon;timestamp;P1;durP1;ratioP1;P2;durP2;ratioP2
63005;SDS011;53704;52.532;6.426;2023-05-17T00:01:50;12.82;;;4.53;;
63005;SDS011;53704;52.532;6.426;2023-05-17T00:04:15;22.48;;;6.05;;
63005;SDS011;53704;52.532;6.426;2023-05-17T00:06:41;22.33;;;6.40;;
63005;SDS011;53704;52.532;6.426;2023-05-17T00:09:07;17.05;;;4.93;;
63005;SDS011;53704;52.532;6.426;2023-05-17T00:11:33;19.65;;;5.43;;
63005;SDS011;53704;52.532;6.426;2023-05-17T00:13:58;18.30;;;5.53;;
63005;SDS011;53704;52.532;6.426;2023-05-17T00:16:23;18.67;;;5.28;;
63005;SDS011;53704;52.532;6.426;2023-05-17T00:18:49;17.15;;;5.30;;
63005;SDS011;53704;52.532;6.426;2023-05-17T00:21:14;22.17;;;5.63;;
63005;SDS011;53704;52.532;6.426;2023-05-17T00:23:40;18.45;;;4.93;;
63005;SDS011;53704;52.532;6.426;2023-05-17T00:26:05;22.85;;;4.63;;
63005;SDS011;53704;52.532;6.426;2023-05-17T00:28:31;16.25;;;4.78;;
63005;SDS011;53704;52.532;6.426;2023-05-17T00:30:56;26.33;;;6.13;;
63005;SDS011;53704;52.532;6.426;2023-05-17T00:33:21;18.55;;;4.82;;
63005;SDS011;53704;52.532;6.426;2023-05-17T00:35:47;18.85;;;4.63;;
63005;SDS011;53704;52.532;6.426;2023-05-17T00:38:12;21.02;;;6.18;;
63005;SDS011;53704;52.532;6.426;2023-05-17T00:40:38;27.55;;;5.55;;
63005;SDS011;53704;52.532;6.426;2023-05-17T00:43:03;18.33;;;4.40;;
63005;SDS011;53704;52.532;6.426;2023-05-17T00:45:28;25.10;;;5.25;;
63005;SDS011;53704;52.532;6.426;2023-05-17T00:47:54;21.55;;;5.32;;
63005;SDS011;53704;52.532;6.426;2023-05-17T00:50:19;21.05;;;6.05;;
63005;SDS011;53704;52.532;6.426;2023-05-17T00:52:45;22.38;;;5.18;;
63005;SDS011;53704;52.532;6.426;2023-05-17T00:55:10;25.90;;;5.63;;
63005;SDS011;53704;52.532;6.426;2023-05-17T00:57:36;20.63;;;5.45;;
63005;SDS011;53704;52.532;6.426;2023-05-17T01:00:02;21.85;;;5.35;;
63005;SDS011;53704;52.532;6.426;2023-05-17T01:02:28;31.40;;;5.85;;
63005;SDS011;53704;52.532;6.426;2023-05-17T01:04:53;24.23;;;4.95;;
63005;SDS011;53704;52.532;6.426;2023-05-17T01:07:19;25.02;;;6.60;;
63005;SDS011;53704;52.532;6.426;2023-05-17T01:09:44;24.17;;;5.13;;
63005;SDS011;53704;52.532;6.426;2023-05-17T01:18:00;18.60;;;4.72;;
63005;SDS011;53704;52.532;6.426;2023-05-17T01:20:37;16.88;;;4.47;;
63005;SDS011;53704;52.532;6.426;2023-05-17T01:23:18;26.20;;;5.28;;
63005;SDS011;53704;52.532;6.426;2023-05-17T01:26:06;25.55;;;5.68;;
63005;SDS011;53704;52.532;6.426;2023-05-17T01:28:39;15.40;;;4.05;;
63005;SDS011;53704;52.532;6.426;2023-05-17T01:31:06;16.00;;;4.20;;
63005;SDS011;53704;52.532;6.426;2023-05-17T01:33:33;22.63;;;4.97;;
63005;SDS011;53704;52.532;6.426;2023-05-17T01:35:59;28.92;;;4.97;;
63005;SDS011;53704;52.532;6.426;2023-05-17T01:38:25;29.00;;;4.72;;
63005;SDS011;53704;52.532;6.426;2023-05-17T01:43:34;22.63;;;4.75;;
63005;SDS011;53704;52.532;6.426;2023-05-17T01:46:13;19.13;;;4.68;;
63005;SDS011;53704;52.532;6.426;2023-05-17T01:48:55;22.27;;;4.82;;
63005;SDS011;53704;52.532;6.426;2023-05-17T01:51:32;20.02;;;4.93;;
63005;SDS011;53704;52.532;6.426;2023-05-17T01:54:01;14.38;;;3.40;;
63005;SDS011;53704;52.532;6.426;2023-05-17T01:56:40;21.95;;;6.35;;
63005;SDS011;53704;52.532;6.426;2023-05-17T01:59:11;25.67;;;4.18;;
63005;SDS011;53704;52.532;6.426;2023-05-17T02:01:43;27.27;;;5.30;;
63005;SDS011;53704;52.532;6.426;2023-05-17T02:04:10;20.83;;;4.68;;
63005;SDS011;53704;52.532;6.426;2023-05-17T02:06:35;20.73;;;4.72;;
63005;SDS011;53704;52.532;6.426;2023-05-17T02:09:01;24.05;;;4.70;;
63005;SDS011;53704;52.532;6.426;2023-05-17T02:11:27;17.27;;;4.20;;
63005;SDS011;53704;52.532;6.426;2023-05-17T02:13:52;20.80;;;4.55;;
63005;SDS011;53704;52.532;6.426;2023-05-17T02:16:18;19.40;;;4.32;;
63005;SDS011;53704;52.532;6.426;2023-05-17T02:18:43;18.85;;;3.90;;
63005;SDS011;53704;52.532;6.426;2023-05-17T02:21:09;18.65;;;3.85;;
63005;SDS011;53704;52.532;6.426;2023-05-17T02:23:35;29.23;;;5.40;;
63005;SDS011;53704;52.532;6.426;2023-05-17T02:26:01;24.98;;;4.43;;
63005;SDS011;53704;52.532;6.426;2023-05-17T02:28:27;34.22;;;5.28;;
63005;SDS011;53704;52.532;6.426;2023-05-17T02:30:52;17.83;;;3.75;;
63005;SDS011;53704;52.532;6.426;2023-05-17T02:33:18;28.20;;;5.10;;
63005;SDS011;53704;52.532;6.426;2023-05-17T02:35:43;23.38;;;4.35;;
63005;SDS011;53704;52.532;6.426;2023-05-17T02:38:09;19.88;;;4.55;;
63005;SDS011;53704;52.532;6.426;2023-05-17T02:40:34;16.38;;;3.67;;
63005;SDS011;53704;52.532;6.426;2023-05-17T02:43:00;16.77;;;4.68;;
63005;SDS011;53704;52.532;6.426;2023-05-17T02:45:25;15.07;;;4.03;;
63005;SDS011;53704;52.532;6.426;2023-05-17T02:47:50;30.55;;;5.18;;
63005;SDS011;53704;52.532;6.426;2023-05-17T02:50:16;18.98;;;4.22;;
63005;SDS011;53704;52.532;6.426;2023-05-17T02:52:41;21.90;;;5.03;;
63005;SDS011;53704;52.532;6.426;2023-05-17T02:55:07;19.95;;;4.22;;
63005;SDS011;53704;52.532;6.426;2023-05-17T02:57:32;23.95;;;4.20;;
63005;SDS011;53704;52.532;6.426;2023-05-17T02:59:58;29.33;;;4.28;;
63005;SDS011;53704;52.532;6.426;2023-05-17T03:02:34;18.50;;;3.88;;
63005;SDS011;53704;52.532;6.426;2023-05-17T03:13:35;19.75;;;3.90;;
63005;SDS011;53704;52.532;6.426;2023-05-17T03:16:00;24.25;;;4.03;;
63005;SDS011;53704;52.532;6.426;2023-05-17T03:18:26;24.80;;;4.28;;
63005;SDS011;53704;52.532;6.426;2023-05-17T03:20:51;29.20;;;5.18;;
63005;SDS011;53704;52.532;6.426;2023-05-17T03:23:17;24.30;;;3.95;;
63005;SDS011;53704;52.532;6.426;2023-05-17T03:25:42;26.40;;;4.55;;
63005;SDS011;53704;52.532;6.426;2023-05-17T03:28:08;35.13;;;4.63;;
63005;SDS011;53704;52.532;6.426;2023-05-17T03:30:33;22.77;;;4.78;;
63005;SDS011;53704;52.532;6.426;2023-05-17T03:32:59;28.40;;;4.82;;
63005;SDS011;53704;52.532;6.426;2023-05-17T03:35:24;24.20;;;4.38;;
63005;SDS011;53704;52.532;6.426;2023-05-17T03:37:50;26.02;;;6.68;;
63005;SDS011;53704;52.532;6.426;2023-05-17T03:43:47;37.15;;;5.82;;
63005;SDS011;53704;52.532;6.426;2023-05-17T03:46:12;30.42;;;4.63;;
63005;SDS011;53704;52.532;6.426;2023-05-17T03:48:38;38.58;;;5.28;;
63005;SDS011;53704;52.532;6.426;2023-05-17T03:51:04;54.90;;;6.70;;
63005;SDS011;53704;52.532;6.426;2023-05-17T03:53:29;28.85;;;4.28;;
63005;SDS011;53704;52.532;6.426;2023-05-17T03:55:55;26.95;;;4.95;;
63005;SDS011;53704;52.532;6.426;2023-05-17T03:58:20;23.25;;;4.53;;
63005;SDS011;53704;52.532;6.426;2023-05-17T04:00:46;31.17;;;5.25;;
63005;SDS011;53704;52.532;6.426;2023-05-17T04:03:11;21.80;;;4.25;;
63005;SDS011;53704;52.532;6.426;2023-05-17T04:05:37;18.77;;;4.38;;
63005;SDS011;53704;52.532;6.426;2023-05-17T04:08:04;27.48;;;5.13;;
63005;SDS011;53704;52.532;6.426;2023-05-17T04:10:29;25.08;;;4.38;;
63005;SDS011;53704;52.532;6.426;2023-05-17T04:12:55;26.05;;;4.72;;
63005;SDS011;53704;52.532;6.426;2023-05-17T04:15:20;24.13;;;4.55;;
63005;SDS011;53704;52.532;6.426;2023-05-17T04:17:45;36.67;;;4.97;;
63005;SDS011;53704;52.532;6.426;2023-05-17T04:20:11;21.17;;;4.72;;
63005;SDS011;53704;52.532;6.426;2023-05-17T04:22:36;20.38;;;3.83;;
63005;SDS011;53704;52.532;6.426;2023-05-17T04:25:02;27.08;;;4.07;;
63005;SDS011;53704;52.532;6.426;2023-05-17T04:27:27;27.65;;;4.20;;
63005;SDS011;53704;52.532;6.426;2023-05-17T04:29:53;36.78;;;5.55;;
63005;SDS011;53704;52.532;6.426;2023-05-17T04:32:18;20.02;;;5.30;;
63005;SDS011;53704;52.532;6.426;2023-05-17T04:34:44;24.88;;;4.68;;
63005;SDS011;53704;52.532;6.426;2023-05-17T04:37:09;27.92;;;5.05;;
63005;SDS011;53704;52.532;6.426;2023-05-17T04:39:38;27.90;;;4.63;;
63005;SDS011;53704;52.532;6.426;2023-05-17T04:55:31;19.45;;;4.45;;
63005;SDS011;53704;52.532;6.426;2023-05-17T04:57:56;27.13;;;4.10;;
63005;SDS011;53704;52.532;6.426;2023-05-17T05:00:21;23.80;;;4.15;;
63005;SDS011;53704;52.532;6.426;2023-05-17T05:02:47;27.83;;;4.03;;
63005;SDS011;53704;52.532;6.426;2023-05-17T05:05:13;29.00;;;3.80;;
63005;SDS011;53704;52.532;6.426;2023-05-17T05:07:39;27.88;;;5.35;;
63005;SDS011;53704;52.532;6.426;2023-05-17T05:10:04;31.50;;;3.80;;
63005;SDS011;53704;52.532;6.426;2023-05-17T05:12:31;22.30;;;3.80;;
63005;SDS011;53704;52.532;6.426;2023-05-17T05:14:56;25.00;;;3.75;;
63005;SDS011;53704;52.532;6.426;2023-05-17T05:17:21;22.25;;;3.00;;
63005;SDS011;53704;52.532;6.426;2023-05-17T05:19:47;24.10;;;4.03;;
63005;SDS011;53704;52.532;6.426;2023-05-17T05:22:12;30.30;;;4.35;;
63005;SDS011;53704;52.532;6.426;2023-05-17T05:24:38;20.83;;;3.10;;
63005;SDS011;53704;52.532;6.426;2023-05-17T05:27:03;20.55;;;3.70;;
63005;SDS011;53704;52.532;6.426;2023-05-17T05:29:28;22.42;;;3.80;;
63005;SDS011;53704;52.532;6.426;2023-05-17T05:31:54;22.58;;;3.92;;
63005;SDS011;53704;52.532;6.426;2023-05-17T05:34:19;18.25;;;3.53;;
63005;SDS011;53704;52.532;6.426;2023-05-17T05:36:45;32.30;;;4.00;;
63005;SDS011;53704;52.532;6.426;2023-05-17T05:39:11;22.85;;;3.38;;
63005;SDS011;53704;52.532;6.426;2023-05-17T05:41:36;27.75;;;3.35;;
63005;SDS011;53704;52.532;6.426;2023-05-17T05:44:02;16.52;;;3.13;;
63005;SDS011;53704;52.532;6.426;2023-05-17T05:46:27;22.17;;;3.30;;
63005;SDS011;53704;52.532;6.426;2023-05-17T05:48:52;15.65;;;2.90;;
63005;SDS011;53704;52.532;6.426;2023-05-17T05:51:18;15.52;;;2.45;;
63005;SDS011;53704;52.532;6.426;2023-05-17T05:53:43;19.65;;;2.90;;
63005;SDS011;53704;52.532;6.426;2023-05-17T05:56:09;14.18;;;2.97;;
63005;SDS011;53704;52.532;6.426;2023-05-17T05:58:35;24.02;;;3.03;;
63005;SDS011;53704;52.532;6.426;2023-05-17T06:01:00;10.27;;;2.30;;
63005;SDS011;53704;52.532;6.426;2023-05-17T06:03:26;21.60;;;4.05;;
63005;SDS011;53704;52.532;6.426;2023-05-17T06:05:52;21.33;;;2.90;;
63005;SDS011;53704;52.532;6.426;2023-05-17T06:08:17;16.20;;;2.50;;
63005;SDS011;53704;52.532;6.426;2023-05-17T06:10:42;16.50;;;3.22;;
63005;SDS011;53704;52.532;6.426;2023-05-17T06:13:08;19.95;;;2.90;;
63005;SDS011;53704;52.532;6.426;2023-05-17T06:15:34;20.95;;;2.70;;
63005;SDS011;53704;52.532;6.426;2023-05-17T06:18:00;9.70;;;2.17;;
63005;SDS011;53704;52.532;6.426;2023-05-17T06:20:25;13.23;;;2.65;;
63005;SDS011;53704;52.532;6.426;2023-05-17T06:22:51;10.43;;;2.20;;
63005;SDS011;53704;52.532;6.426;2023-05-17T06:25:16;13.45;;;2.30;;
63005;SDS011;53704;52.532;6.426;2023-05-17T06:27:41;18.67;;;2.72;;
63005;SDS011;53704;52.532;6.426;2023-05-17T06:30:07;18.27;;;2.85;;
63005;SDS011;53704;52.532;6.426;2023-05-17T06:32:34;21.63;;;4.15;;
63005;SDS011;53704;52.532;6.426;2023-05-17T06:35:00;14.07;;;2.17;;
63005;SDS011;53704;52.532;6.426;2023-05-17T06:37:25;11.90;;;2.50;;
63005;SDS011;53704;52.532;6.426;2023-05-17T06:39:51;9.60;;;2.00;;
63005;SDS011;53704;52.532;6.426;2023-05-17T06:42:16;10.07;;;2.10;;
63005;SDS011;53704;52.532;6.426;2023-05-17T06:44:42;14.27;;;2.67;;
63005;SDS011;53704;52.532;6.426;2023-05-17T06:47:08;14.98;;;2.97;;
63005;SDS011;53704;52.532;6.426;2023-05-17T06:49:34;10.63;;;2.35;;
63005;SDS011;53704;52.532;6.426;2023-05-17T06:51:59;14.07;;;2.00;;
63005;SDS011;53704;52.532;6.426;2023-05-17T06:54:30;19.08;;;2.10;;
63005;SDS011;53704;52.532;6.426;2023-05-17T06:56:59;13.13;;;2.67;;
63005;SDS011;53704;52.532;6.426;2023-05-17T06:59:26;11.77;;;2.17;;
63005;SDS011;53704;52.532;6.426;2023-05-17T07:01:51;8.00;;;1.85;;
63005;SDS011;53704;52.532;6.426;2023-05-17T07:04:17;17.60;;;2.38;;
63005;SDS011;53704;52.532;6.426;2023-05-17T07:06:43;15.07;;;2.63;;
63005;SDS011;53704;52.532;6.426;2023-05-17T07:09:08;10.75;;;2.63;;
63005;SDS011;53704;52.532;6.426;2023-05-17T07:11:34;13.65;;;1.90;;
63005;SDS011;53704;52.532;6.426;2023-05-17T07:13:59;21.63;;;2.75;;
63005;SDS011;53704;52.532;6.426;2023-05-17T07:16:24;16.50;;;2.03;;
63005;SDS011;53704;52.532;6.426;2023-05-17T07:18:50;10.30;;;2.72;;
63005;SDS011;53704;52.532;6.426;2023-05-17T07:21:15;8.02;;;2.03;;
63005;SDS011;53704;52.532;6.426;2023-05-17T07:23:41;13.35;;;2.35;;
63005;SDS011;53704;52.532;6.426;2023-05-17T07:26:06;16.05;;;2.78;;
63005;SDS011;53704;52.532;6.426;2023-05-17T07:28:32;15.07;;;2.05;;
63005;SDS011;53704;52.532;6.426;2023-05-17T07:30:57;14.68;;;2.70;;
63005;SDS011;53704;52.532;6.426;2023-05-17T07:33:23;9.63;;;2.00;;
63005;SDS011;53704;52.532;6.426;2023-05-17T07:35:48;7.78;;;1.75;;
63005;SDS011;53704;52.532;6.426;2023-05-17T07:38:13;8.98;;;1.75;;
63005;SDS011;53704;52.532;6.426;2023-05-17T07:40:39;20.73;;;2.80;;
63005;SDS011;53704;52.532;6.426;2023-05-17T07:43:04;9.52;;;1.98;;
63005;SDS011;53704;52.532;6.426;2023-05-17T07:45:30;19.33;;;2.17;;
63005;SDS011;53704;52.532;6.426;2023-05-17T07:47:55;19.85;;;2.35;;
63005;SDS011;53704;52.532;6.426;2023-05-17T07:50:20;19.98;;;2.50;;
63005;SDS011;53704;52.532;6.426;2023-05-17T07:52:47;11.15;;;2.25;;
63005;SDS011;53704;52.532;6.426;2023-05-17T07:55:12;10.38;;;1.65;;
63005;SDS011;53704;52.532;6.426;2023-05-17T07:57:38;13.38;;;2.47;;
63005;SDS011;53704;52.532;6.426;2023-05-17T08:00:03;15.20;;;2.33;;
63005;SDS011;53704;52.532;6.426;2023-05-17T08:02:30;8.13;;;2.10;;
63005;SDS011;53704;52.532;6.426;2023-05-17T08:04:55;11.80;;;2.88;;
63005;SDS011;53704;52.532;6.426;2023-05-17T08:07:21;11.60;;;1.90;;
63005;SDS011;53704;52.532;6.426;2023-05-17T08:09:46;7.50;;;2.65;;
63005;SDS011;53704;52.532;6.426;2023-05-17T08:12:11;16.98;;;3.38;;
63005;SDS011;53704;52.532;6.426;2023-05-17T08:14:38;11.52;;;2.65;;
63005;SDS011;53704;52.532;6.426;2023-05-17T08:17:03;16.92;;;2.45;;
63005;SDS011;53704;52.532;6.426;2023-05-17T08:19:29;12.85;;;2.78;;
63005;SDS011;53704;52.532;6.426;2023-05-17T08:21:55;13.25;;;2.70;;
63005;SDS011;53704;52.532;6.426;2023-05-17T08:24:20;19.15;;;2.63;;
63005;SDS011;53704;52.532;6.426;2023-05-17T08:26:46;11.65;;;2.78;;
63005;SDS011;53704;52.532;6.426;2023-05-17T08:29:12;12.63;;;3.17;;
63005;SDS011;53704;52.532;6.426;2023-05-17T08:31:37;10.93;;;3.10;;
63005;SDS011;53704;52.532;6.426;2023-05-17T08:34:02;24.02;;;3.15;;
63005;SDS011;53704;52.532;6.426;2023-05-17T08:36:28;13.88;;;3.00;;
63005;SDS011;53704;52.532;6.426;2023-05-17T08:38:53;15.23;;;3.83;;
63005;SDS011;53704;52.532;6.426;2023-05-17T08:41:19;14.63;;;2.95;;
63005;SDS011;53704;52.532;6.426;2023-05-17T08:43:45;15.25;;;3.67;;
63005;SDS011;53704;52.532;6.426;2023-05-17T08:46:12;8.80;;;2.45;;
63005;SDS011;53704;52.532;6.426;2023-05-17T08:48:39;14.07;;;2.53;;
63005;SDS011;53704;52.532;6.426;2023-05-17T08:51:08;14.63;;;2.72;;
63005;SDS011;53704;52.532;6.426;2023-05-17T08:53:36;13.18;;;2.70;;
63005;SDS011;53704;52.532;6.426;2023-05-17T08:56:02;23.17;;;2.78;;
63005;SDS011;53704;52.532;6.426;2023-05-17T08:58:32;17.58;;;3.38;;
63005;SDS011;53704;52.532;6.426;2023-05-17T09:01:01;21.02;;;2.80;;
63005;SDS011;53704;52.532;6.426;2023-05-17T09:03:27;16.17;;;2.95;;
63005;SDS011;53704;52.532;6.426;2023-05-17T09:05:54;11.70;;;3.08;;
63005;SDS011;53704;52.532;6.426;2023-05-17T09:08:22;14.20;;;3.05;;
63005;SDS011;53704;52.532;6.426;2023-05-17T09:10:48;22.10;;;3.72;;
63005;SDS011;53704;52.532;6.426;2023-05-17T09:13:14;16.63;;;3.40;;
63005;SDS011;53704;52.532;6.426;2023-05-17T09:15:43;11.38;;;2.97;;
63005;SDS011;53704;52.532;6.426;2023-05-17T09:18:19;18.10;;;3.60;;
63005;SDS011;53704;52.532;6.426;2023-05-17T09:21:00;15.82;;;4.00;;
63005;SDS011;53704;52.532;6.426;2023-05-17T09:23:30;15.10;;;3.25;;
63005;SDS011;53704;52.532;6.426;2023-05-17T09:26:02;13.07;;;2.63;;
63005;SDS011;53704;52.532;6.426;2023-05-17T09:28:35;17.67;;;2.80;;
63005;SDS011;53704;52.532;6.426;2023-05-17T09:31:09;15.13;;;2.60;;
63005;SDS011;53704;52.532;6.426;2023-05-17T09:33:45;13.27;;;2.47;;
63005;SDS011;53704;52.532;6.426;2023-05-17T09:36:18;16.40;;;3.55;;
63005;SDS011;53704;52.532;6.426;2023-05-17T09:38:52;15.15;;;2.78;;
63005;SDS011;53704;52.532;6.426;2023-05-17T09:41:18;11.00;;;2.60;;
63005;SDS011;53704;52.532;6.426;2023-05-17T09:43:44;15.30;;;2.97;;
63005;SDS011;53704;52.532;6.426;2023-05-17T09:46:10;11.00;;;2.88;;
63005;SDS011;53704;52.532;6.426;2023-05-17T09:48:36;12.20;;;3.33;;
63005;SDS011;53704;52.532;6.426;2023-05-17T09:51:02;23.20;;;3.17;;
63005;SDS011;53704;52.532;6.426;2023-05-17T09:53:33;12.60;;;2.65;;
63005;SDS011;53704;52.532;6.426;2023-05-17T09:56:04;16.77;;;3.20;;
63005;SDS011;53704;52.532;6.426;2023-05-17T10:16:10;13.75;;;2.60;;
63005;SDS011;53704;52.532;6.426;2023-05-17T10:18:37;19.65;;;3.53;;
63005;SDS011;53704;52.532;6.426;2023-05-17T10:21:05;12.07;;;3.50;;
63005;SDS011;53704;52.532;6.426;2023-05-17T10:23:32;17.65;;;3.28;;
63005;SDS011;53704;52.532;6.426;2023-05-17T10:25:58;11.85;;;3.00;;
63005;SDS011;53704;52.532;6.426;2023-05-17T10:28:24;5.80;;;2.25;;
63005;SDS011;53704;52.532;6.426;2023-05-17T10:30:52;12.48;;;2.83;;
63005;SDS011;53704;52.532;6.426;2023-05-17T10:33:18;12.30;;;3.05;;
63005;SDS011;53704;52.532;6.426;2023-05-17T10:35:44;13.40;;;3.13;;
63005;SDS011;53704;52.532;6.426;2023-05-17T10:38:11;10.35;;;3.42;;
63005;SDS011;53704;52.532;6.426;2023-05-17T10:40:37;18.05;;;3.15;;
63005;SDS011;53704;52.532;6.426;2023-05-17T10:43:05;10.70;;;2.75;;
63005;SDS011;53704;52.532;6.426;2023-05-17T10:45:33;20.13;;;3.50;;
63005;SDS011;53704;52.532;6.426;2023-05-17T10:48:01;9.40;;;3.00;;
63005;SDS011;53704;52.532;6.426;2023-05-17T10:50:29;14.70;;;3.22;;
63005;SDS011;53704;52.532;6.426;2023-05-17T10:52:56;15.30;;;3.47;;
63005;SDS011;53704;52.532;6.426;2023-05-17T10:55:23;17.10;;;3.70;;
63005;SDS011;53704;52.532;6.426;2023-05-17T10:58:09;14.38;;;3.42;;
63005;SDS011;53704;52.532;6.426;2023-05-17T11:00:38;11.18;;;3.10;;
63005;SDS011;53704;52.532;6.426;2023-05-17T11:03:11;20.85;;;3.13;;
63005;SDS011;53704;52.532;6.426;2023-05-17T11:08:33;9.85;;;3.30;;
63005;SDS011;53704;52.532;6.426;2023-05-17T11:11:11;11.95;;;3.20;;
63005;SDS011;53704;52.532;6.426;2023-05-17T11:13:51;12.48;;;3.67;;
63005;SDS011;53704;52.532;6.426;2023-05-17T11:16:20;8.25;;;3.33;;
63005;SDS011;53704;52.532;6.426;2023-05-17T11:18:53;11.32;;;3.33;;
63005;SDS011;53704;52.532;6.426;2023-05-17T11:21:22;12.45;;;3.42;;
63005;SDS011;53704;52.532;6.426;2023-05-17T11:23:53;12.95;;;2.92;;
63005;SDS011;53704;52.532;6.426;2023-05-17T11:26:21;17.02;;;3.67;;
63005;SDS011;53704;52.532;6.426;2023-05-17T11:28:58;18.55;;;3.65;;
63005;SDS011;53704;52.532;6.426;2023-05-17T11:31:35;13.95;;;3.30;;
63005;SDS011;53704;52.532;6.426;2023-05-17T11:34:02;16.17;;;3.53;;
63005;SDS011;53704;52.532;6.426;2023-05-17T11:36:29;16.00;;;4.20;;
63005;SDS011;53704;52.532;6.426;2023-05-17T11:41:37;10.50;;;2.90;;
63005;SDS011;53704;52.532;6.426;2023-05-17T11:44:06;23.00;;;3.28;;
63005;SDS011;53704;52.532;6.426;2023-05-17T11:46:34;12.68;;;3.65;;
63005;SDS011;53704;52.532;6.426;2023-05-17T11:48:59;16.83;;;3.63;;
63005;SDS011;53704;52.532;6.426;2023-05-17T11:51:25;17.40;;;4.10;;
63005;SDS011;53704;52.532;6.426;2023-05-17T11:53:54;21.13;;;3.83;;
63005;SDS011;53704;52.532;6.426;2023-05-17T11:56:22;18.33;;;4.55;;
63005;SDS011;53704;52.532;6.426;2023-05-17T11:58:51;20.48;;;4.30;;
63005;SDS011;53704;52.532;6.426;2023-05-17T12:01:19;16.13;;;3.58;;
63005;SDS011;53704;52.532;6.426;2023-05-17T12:03:44;16.63;;;3.53;;
63005;SDS011;53704;52.532;6.426;2023-05-17T12:06:12;7.93;;;2.65;;
63005;SDS011;53704;52.532;6.426;2023-05-17T12:08:41;17.50;;;3.45;;
63005;SDS011;53704;52.532;6.426;2023-05-17T12:11:10;13.20;;;3.80;;
63005;SDS011;53704;52.532;6.426;2023-05-17T12:13:40;10.95;;;3.05;;
63005;SDS011;53704;52.532;6.426;2023-05-17T12:16:09;12.43;;;3.22;;
63005;SDS011;53704;52.532;6.426;2023-05-17T12:18:57;13.82;;;2.95;;
63005;SDS011;53704;52.532;6.426;2023-05-17T12:21:23;18.73;;;3.50;;
63005;SDS011;53704;52.532;6.426;2023-05-17T12:23:52;14.00;;;3.38;;
63005;SDS011;53704;52.532;6.426;2023-05-17T12:26:21;12.75;;;3.00;;
63005;SDS011;53704;52.532;6.426;2023-05-17T12:28:57;14.35;;;3.42;;
63005;SDS011;53704;52.532;6.426;2023-05-17T12:34:05;23.80;;;3.15;;
63005;SDS011;53704;52.532;6.426;2023-05-17T12:36:33;13.13;;;3.15;;
63005;SDS011;53704;52.532;6.426;2023-05-17T12:39:00;21.48;;;3.05;;
63005;SDS011;53704;52.532;6.426;2023-05-17T12:41:26;9.70;;;2.95;;
63005;SDS011;53704;52.532;6.426;2023-05-17T12:43:52;10.43;;;2.97;;
63005;SDS011;53704;52.532;6.426;2023-05-17T12:46:18;14.55;;;2.80;;
63005;SDS011;53704;52.532;6.426;2023-05-17T12:48:48;12.57;;;3.63;;
63005;SDS011;53704;52.532;6.426;2023-05-17T12:51:16;6.22;;;2.20;;
63005;SDS011;53704;52.532;6.426;2023-05-17T12:53:51;9.55;;;3.20;;
63005;SDS011;53704;52.532;6.426;2023-05-17T12:56:28;15.47;;;2.80;;
63005;SDS011;53704;52.532;6.426;2023-05-17T13:01:37;12.63;;;3.30;;
63005;SDS011;53704;52.532;6.426;2023-05-17T13:04:13;10.05;;;3.35;;
63005;SDS011;53704;52.532;6.426;2023-05-17T13:09:21;8.10;;;2.63;;
63005;SDS011;53704;52.532;6.426;2023-05-17T13:11:54;12.95;;;3.10;;
63005;SDS011;53704;52.532;6.426;2023-05-17T13:14:34;9.73;;;2.92;;
63005;SDS011;53704;52.532;6.426;2023-05-17T13:17:04;10.85;;;2.88;;
63005;SDS011;53704;52.532;6.426;2023-05-17T13:19:31;9.63;;;2.90;;
63005;SDS011;53704;52.532;6.426;2023-05-17T13:21:57;10.73;;;3.17;;
63005;SDS011;53704;52.532;6.426;2023-05-17T13:24:23;11.23;;;2.65;;
63005;SDS011;53704;52.532;6.426;2023-05-17T13:26:50;10.50;;;3.15;;
63005;SDS011;53704;52.532;6.426;2023-05-17T13:29:15;11.10;;;2.85;;
63005;SDS011;53704;52.532;6.426;2023-05-17T13:31:41;8.52;;;2.85;;
63005;SDS011;53704;52.532;6.426;2023-05-17T13:34:09;7.75;;;2.63;;
63005;SDS011;53704;52.532;6.426;2023-05-17T13:36:35;13.93;;;2.92;;
63005;SDS011;53704;52.532;6.426;2023-05-17T13:39:00;14.18;;;2.78;;
63005;SDS011;53704;52.532;6.426;2023-05-17T13:41:26;14.25;;;3.33;;
63005;SDS011;53704;52.532;6.426;2023-05-17T13:43:52;9.93;;;2.85;;
63005;SDS011;53704;52.532;6.426;2023-05-17T13:46:17;18.73;;;3.83;;
63005;SDS011;53704;52.532;6.426;2023-05-17T13:48:43;7.38;;;2.35;;
63005;SDS011;53704;52.532;6.426;2023-05-17T13:51:08;8.48;;;2.60;;
63005;SDS011;53704;52.532;6.426;2023-05-17T13:53:33;8.75;;;2.72;;
63005;SDS011;53704;52.532;6.426;2023-05-17T13:55:59;15.60;;;2.58;;
63005;SDS011;53704;52.532;6.426;2023-05-17T13:58:25;9.18;;;3.08;;
63005;SDS011;53704;52.532;6.426;2023-05-17T14:00:50;23.88;;;3.78;;
63005;SDS011;53704;52.532;6.426;2023-05-17T14:03:16;11.40;;;2.70;;
63005;SDS011;53704;52.532;6.426;2023-05-17T14:05:41;11.57;;;3.15;;
63005;SDS011;53704;52.532;6.426;2023-05-17T14:08:07;10.93;;;3.05;;
63005;SDS011;53704;52.532;6.426;2023-05-17T14:10:33;12.95;;;2.38;;
63005;SDS011;53704;52.532;6.426;2023-05-17T14:12:59;15.05;;;2.67;;
63005;SDS011;53704;52.532;6.426;2023-05-17T14:15:25;16.63;;;3.45;;
63005;SDS011;53704;52.532;6.426;2023-05-17T14:17:51;16.60;;;3.50;;
63005;SDS011;53704;52.532;6.426;2023-05-17T14:20:17;11.30;;;3.03;;
63005;SDS011;53704;52.532;6.426;2023-05-17T14:22:42;14.13;;;2.95;;
63005;SDS011;53704;52.532;6.426;2023-05-17T14:25:08;11.40;;;2.90;;
63005;SDS011;53704;52.532;6.426;2023-05-17T14:27:35;16.52;;;3.22;;
63005;SDS011;53704;52.532;6.426;2023-05-17T14:30:00;14.93;;;3.45;;
63005;SDS011;53704;52.532;6.426;2023-05-17T14:32:26;20.52;;;3.63;;
63005;SDS011;53704;52.532;6.426;2023-05-17T14:34:51;13.10;;;2.60;;
63005;SDS011;53704;52.532;6.426;2023-05-17T14:37:17;12.23;;;2.85;;
63005;SDS011;53704;52.532;6.426;2023-05-17T14:39:45;15.70;;;3.63;;
63005;SDS011;53704;52.532;6.426;2023-05-17T14:42:10;14.85;;;3.53;;
63005;SDS011;53704;52.532;6.426;2023-05-17T14:44:35;14.73;;;3.22;;
63005;SDS011;53704;52.532;6.426;2023-05-17T14:47:06;18.67;;;3.97;;
63005;SDS011;53704;52.532;6.426;2023-05-17T14:49:32;13.63;;;3.33;;
63005;SDS011;53704;52.532;6.426;2023-05-17T14:51:57;22.00;;;3.50;;
63005;SDS011;53704;52.532;6.426;2023-05-17T14:54:23;11.07;;;3.15;;
63005;SDS011;53704;52.532;6.426;2023-05-17T14:56:50;20.80;;;3.78;;
63005;SDS011;53704;52.532;6.426;2023-05-17T14:59:15;11.05;;;3.00;;
63005;SDS011;53704;52.532;6.426;2023-05-17T15:01:41;12.43;;;2.72;;
63005;SDS011;53704;52.532;6.426;2023-05-17T15:04:07;9.45;;;2.67;;
63005;SDS011;53704;52.532;6.426;2023-05-17T15:06:34;16.25;;;3.60;;
63005;SDS011;53704;52.532;6.426;2023-05-17T15:09:00;20.73;;;3.10;;
63005;SDS011;53704;52.532;6.426;2023-05-17T15:11:27;16.00;;;2.30;;
63005;SDS011;53704;52.532;6.426;2023-05-17T15:13:53;15.07;;;3.22;;
63005;SDS011;53704;52.532;6.426;2023-05-17T15:16:18;13.73;;;3.10;;
63005;SDS011;53704;52.532;6.426;2023-05-17T15:18:44;16.95;;;3.30;;
63005;SDS011;53704;52.532;6.426;2023-05-17T15:21:10;8.35;;;2.70;;
63005;SDS011;53704;52.532;6.426;2023-05-17T15:23:36;13.73;;;3.38;;
63005;SDS011;53704;52.532;6.426;2023-05-17T15:26:01;11.75;;;3.00;;
63005;SDS011;53704;52.532;6.426;2023-05-17T15:28:27;16.70;;;3.22;;
63005;SDS011;53704;52.532;6.426;2023-05-17T15:30:59;15.35;;;2.97;;
63005;SDS011;53704;52.532;6.426;2023-05-17T15:33:27;5.18;;;2.60;;
63005;SDS011;53704;52.532;6.426;2023-05-17T15:35:52;15.25;;;2.47;;
63005;SDS011;53704;52.532;6.426;2023-05-17T15:38:18;11.13;;;2.40;;
63005;SDS011;53704;52.532;6.426;2023-05-17T15:40:43;10.55;;;2.53;;